Hotchkiss, CO

12:41 AM MDT on August 02, 2015 (GMT -0600)
Rogers Mesa CO | | Change Station
CLOSE
Current Station
Personal Weather Station
Location: Rogers Mesa, CO
Elevation: 5794 ft
Nearby Weather Stations

Elev 5794 ft 38.81 °N, 107.77 °W | Updated 3 seconds ago

Mostly Cloudy
Mostly Cloudy
65.4 °F
Feels Like 65.4 °F
N
2.4
Wind Variable Wind from East
Gusts 2.4 mph

Today
High -- | Low -- °F
--% Chance of Precip.
Yesterday
High -- | Low -- °F
Precip. -- in
6:12 AM 8:21 PM
Waning Gibbous, 95% visible
Pressure 30.16 in
Visibility 10.0 miles
Clouds Clear
Dew Point 55 °F
Humidity 69%
Rainfall 0.00 in
Snow Depth Not available.
UV 0 out of 12
Pollen 6.80 out of 12
Air Quality Not available.
Flu Activity Not available.
METAR KAJZ 020635Z AUTO 05005KT 10SM CLR 22/12 A3016 RMK AO2 LTG DSNT S T02190121

More Conditions Fewer Conditions

Pressure 30.16 in
Visibility 10.0 miles
Clouds Clear
Dew Point 55 °F
Humidity 69%
Rainfall 0.00 in
Snow Depth Not available.
UV 0 out of 12
Pollen 6.80 out of 12
Air Quality Not available.
Flu Activity Not available.
METAR KAJZ 020635Z AUTO 05005KT 10SM CLR 22/12 A3016 RMK AO2 LTG DSNT S T02190121

More Conditions Fewer Conditions

10-Day Weather Forecast

×

Almanac

Astronomy

Aug. 02, 2015 Rise Set
Actual Time
Civil Twilight
Nautical Twilight
Astronomical Twilight
Moon
Length of Visible Light
Length of Day
Tomorrow will be .
, % of the Moon is Illuminated

Today's Extremes

State Highs State Lows

Community

WunderPhotos

Upload Photos

1,843,198 photos uploaded!

WunderBlogs® & News

Nearby

Air Quality

  Air Quality AQ Index Pollutant
Not available.

Snow Depth

Station Depth Elevation

Earthquake Activity

City Distance Mag. Time & Date
Minimum magnitude displayed is 2.5.

Coastal Water Temperatures

Place Temperature

Stations

Nearby Weather Stations

Station Location Temp. Windchill Dew Point Humidity Wind Precip. Elev Updated Type